Wetterdaten: Woche 08.03.10 - 14.03.10 (KW10)
Datum Zeit Temp. A. Feuchte A. Luftdruck Regen Wind Richtung Taupunkt Windchill Windben
08.03.2010 00:00 -3,5 C 52 % 1021,0 hPa 0,0 l/m 1,9 km/h O -11,9 C -3,5 C 1,1 km/h
08.03.2010 01:00 -4,7 C 56 % 1020,6 hPa 0,0 l/m 0,0 km/h NO -12,1 C -4,7 C 0,0 km/h
08.03.2010 02:00 -4,2 C 55 % 1020,5 hPa 0,0 l/m 0,0 km/h O-SO -11,9 C -4,2 C 0,0 km/h
08.03.2010 03:00 -5,1 C 58 % 1020,3 hPa 0,0 l/m 1,9 km/h O-SO -12,0 C -5,1 C 1,1 km/h
08.03.2010 04:00 -6,4 C 62 % 1020,0 hPa 0,0 l/m 0,0 km/h W-NW -12,5 C -6,4 C 0,0 km/h
08.03.2010 05:00 -6,2 C 61 % 1019,8 hPa 0,0 l/m 0,0 km/h NO -12,5 C -6,2 C 0,0 km/h
08.03.2010 06:00 -8,6 C 69 % 1019,4 hPa 0,0 l/m 0,0 km/h S -13,2 C -8,6 C 0,0 km/h
08.03.2010 07:00 -6,7 C 74 % 1019,6 hPa 0,0 l/m 0,0 km/h NO -10,5 C -6,7 C 0,0 km/h
08.03.2010 08:00 -1,1 C 50 % 1019,4 hPa 0,0 l/m 0,0 km/h N-NO -10,2 C -1,1 C 0,0 km/h
08.03.2010 09:00 4,6 C 37 % 1019,3 hPa 0,0 l/m 0,0 km/h N-NO -8,8 C 4,6 C 0,0 km/h
08.03.2010 10:00 6,1 C 31 % 1019,0 hPa 0,0 l/m 9,1 km/h SO -9,7 C 3,9 C 5,0 km/h
08.03.2010 11:00 7,5 C 32 % 1018,6 hPa 0,0 l/m 0,0 km/h O -8,1 C 7,5 C 0,0 km/h
08.03.2010 12:00 6,2 C 32 % 1018,1 hPa 0,0 l/m 0,0 km/h O-SO -9,2 C 6,2 C 0,0 km/h
08.03.2010 13:00 6,9 C 34 % 1017,5 hPa 0,0 l/m 4,5 km/h N-NO -7,9 C 6,9 C 2,5 km/h
08.03.2010 14:00 7,4 C 31 % 1017,1 hPa 0,0 l/m 13,6 km/h N-NO -8,6 C 2,7 C 7,6 km/h
08.03.2010 15:00 9,6 C 30 % 1016,6 hPa 0,0 l/m 5,2 km/h O-SO -7,1 C 9,6 C 2,9 km/h
08.03.2010 16:00 8,6 C 30 % 1016,9 hPa 0,0 l/m 2,6 km/h NO -8,0 C 8,6 C 1,4 km/h
08.03.2010 17:00 4,5 C 34 % 1016,8 hPa 0,0 l/m 0,0 km/h SO -10,0 C 4,5 C 0,0 km/h
08.03.2010 18:00 -1,4 C 45 % 1017,4 hPa 0,0 l/m 0,0 km/h S-SO -11,8 C -1,4 C 0,0 km/h
08.03.2010 19:00 -1,5 C 48 % 1017,4 hPa 0,0 l/m 6,5 km/h O-NO -11,1 C -1,6 C 3,6 km/h
08.03.2010 20:00 -2,1 C 51 % 1017,0 hPa 0,0 l/m 21,4 km/h O -10,8 C -13,0 C 11,9 km/h
08.03.2010 21:00 -2,5 C 54 % 1016,9 hPa 0,0 l/m 10,4 km/h O -10,5 C -6,6 C 5,8 km/h
08.03.2010 22:00 -3,2 C 56 % 1016,8 hPa 0,0 l/m 0,0 km/h NO -10,7 C -3,2 C 0,0 km/h
08.03.2010 23:00 -3,7 C 60 % 1016,5 hPa 0,0 l/m 0,0 km/h O-NO -10,3 C -3,7 C 0,0 km/h
09.03.2010 00:00 -3,6 C 59 % 1016,2 hPa 0,0 l/m 3,2 km/h N-NO -10,4 C -3,6 C 1,8 km/h
09.03.2010 01:00 -3,9 C 60 % 1015,9 hPa 0,0 l/m 9,1 km/h O-NO -10,5 C -6,9 C 5,0 km/h
09.03.2010 02:00 -5,0 C 62 % 1015,7 hPa 0,0 l/m 0,0 km/h N-NO -11,1 C -5,0 C 0,0 km/h
09.03.2010 03:00 -4,6 C 64 % 1015,5 hPa 0,0 l/m 0,0 km/h N-NO -10,3 C -4,6 C 0,0 km/h
09.03.2010 04:00 -4,7 C 62 % 1015,5 hPa 0,0 l/m 0,0 km/h O-NO -10,8 C -4,7 C 0,0 km/h
09.03.2010 05:00 -4,8 C 62 % 1015,7 hPa 0,0 l/m 0,0 km/h N -10,9 C -4,8 C 0,0 km/h
09.03.2010 06:00 -5,4 C 63 % 1015,8 hPa 0,0 l/m 17,5 km/h NW -11,3 C -15,2 C 9,7 km/h
09.03.2010 07:00 -4,8 C 63 % 1016,3 hPa 0,0 l/m 0,0 km/h O-NO -10,7 C -4,8 C 0,0 km/h
09.03.2010 08:00 -0,7 C 51 % 1016,4 hPa 0,0 l/m 14,9 km/h O -9,6 C -7,8 C 8,3 km/h
09.03.2010 09:00 2,1 C 43 % 1016,8 hPa 0,0 l/m 2,6 km/h O-NO -9,1 C 2,1 C 1,4 km/h
09.03.2010 10:00 0,3 C 42 % 1016,7 hPa 0,0 l/m 0,0 km/h NO -11,1 C 0,3 C 0,0 km/h
09.03.2010 11:00 -0,4 C 47 % 1016,1 hPa 0,0 l/m 1,9 km/h NO -10,3 C -0,4 C 1,1 km/h
09.03.2010 12:00 0,1 C 47 % 1016,1 hPa 0,0 l/m 20,1 km/h S-SO -9,8 C -9,5 C 11,2 km/h
09.03.2010 13:00 1,4 C 47 % 1015,6 hPa 0,0 l/m 13,0 km/h SO -8,7 C -4,1 C 7,2 km/h
09.03.2010 14:00 3,6 C 43 % 1015,5 hPa 0,0 l/m 0,0 km/h O -7,8 C 3,6 C 0,0 km/h
09.03.2010 15:00 2,8 C 42 % 1015,4 hPa 0,0 l/m 5,8 km/h O-NO -8,8 C 2,8 C 3,2 km/h
09.03.2010 16:00 1,9 C 41 % 1015,5 hPa 0,0 l/m 2,6 km/h N-NO -9,9 C 1,9 C 1,4 km/h
09.03.2010 17:00 2,1 C 41 % 1015,8 hPa 0,0 l/m 9,7 km/h O-SO -9,7 C -0,9 C 5,4 km/h
09.03.2010 18:00 -0,2 C 47 % 1015,9 hPa 0,0 l/m 0,0 km/h N-NO -10,1 C -0,2 C 0,0 km/h
09.03.2010 19:00 -0,7 C 49 % 1016,3 hPa 0,0 l/m 0,0 km/h NO -10,1 C -0,7 C 0,0 km/h
09.03.2010 20:00 -0,7 C 48 % 1016,3 hPa 0,0 l/m 21,4 km/h N -10,3 C -11,2 C 11,9 km/h
09.03.2010 21:00 -0,7 C 47 % 1016,4 hPa 0,0 l/m 15,6 km/h NO -10,6 C -8,2 C 8,6 km/h
09.03.2010 22:00 -0,7 C 46 % 1016,0 hPa 0,0 l/m 1,3 km/h N-NO -10,8 C -0,7 C 0,7 km/h
09.03.2010 23:00 -1,1 C 47 % 1015,1 hPa 0,0 l/m 0,0 km/h NO -10,9 C -1,1 C 0,0 km/h
10.03.2010 00:00 -1,6 C 48 % 1014,2 hPa 0,0 l/m 0,0 km/h NO -11,1 C -1,6 C 0,0 km/h
10.03.2010 01:00 -1,3 C 48 % 1013,9 hPa 0,0 l/m 0,6 km/h NO -10,9 C -1,3 C 0,4 km/h
10.03.2010 02:00 -1,5 C 47 % 1013,4 hPa 0,0 l/m 0,0 km/h NO -11,3 C -1,5 C 0,0 km/h
10.03.2010 03:00 -1,8 C 48 % 1013,0 hPa 0,0 l/m 0,6 km/h N-NO -11,3 C -1,8 C 0,4 km/h
10.03.2010 04:00 -1,8 C 48 % 1012,9 hPa 0,0 l/m 0,0 km/h NO -11,3 C -1,8 C 0,0 km/h
10.03.2010 05:00 -2,2 C 51 % 1013,1 hPa 0,0 l/m 0,0 km/h N-NO -10,9 C -2,2 C 0,0 km/h
10.03.2010 06:00 -2,7 C 52 % 1013,0 hPa 0,0 l/m 0,0 km/h N-NO -11,2 C -2,7 C 0,0 km/h
10.03.2010 07:00 -2,1 C 51 % 1012,9 hPa 0,0 l/m 0,0 km/h O-SO -10,8 C -2,1 C 0,0 km/h
10.03.2010 08:00 -0,8 C 49 % 1013,3 hPa 0,0 l/m 11,0 km/h NO -10,1 C -5,2 C 6,1 km/h
10.03.2010 09:00 1,1 C 43 % 1012,8 hPa 0,0 l/m 3,2 km/h N -10,1 C 1,1 C 1,8 km/h
10.03.2010 10:00 0,9 C 44 % 1013,1 hPa 0,0 l/m 1,9 km/h NO -9,9 C 0,9 C 1,1 km/h
10.03.2010 11:00 1,1 C 42 % 1013,1 hPa 0,0 l/m 7,1 km/h NO -10,4 C 0,4 C 4,0 km/h
10.03.2010 12:00 2,2 C 41 % 1012,8 hPa 0,0 l/m 3,2 km/h N-NO -9,7 C 2,2 C 1,8 km/h
10.03.2010 13:00 3,3 C 39 % 1012,1 hPa 0,0 l/m 9,1 km/h N -9,3 C 0,9 C 5,0 km/h
10.03.2010 14:00 5,3 C 37 % 1011,9 hPa 0,0 l/m 1,9 km/h N-NO -8,2 C 5,3 C 1,1 km/h
10.03.2010 15:00 5,5 C 33 % 1011,6 hPa 0,0 l/m 2,6 km/h N-NO -9,5 C 5,5 C 1,4 km/h
10.03.2010 16:00 8,5 C 31 % 1011,5 hPa 0,0 l/m 0,0 km/h NO -7,6 C 8,5 C 0,0 km/h
10.03.2010 17:00 2,4 C 41 % 1011,7 hPa 0,0 l/m 0,0 km/h O-NO -9,5 C 2,4 C 0,0 km/h
10.03.2010 18:00 1,5 C 45 % 1011,9 hPa 0,0 l/m 0,0 km/h N-NO -9,1 C 1,5 C 0,0 km/h
10.03.2010 19:00 1,5 C 45 % 1012,1 hPa 0,0 l/m 5,2 km/h NO -9,1 C 1,5 C 2,9 km/h
10.03.2010 20:00 1,4 C 45 % 1012,0 hPa 0,0 l/m 0,0 km/h NO -9,2 C 1,4 C 0,0 km/h
10.03.2010 21:00 1,3 C 47 % 1012,3 hPa 0,0 l/m 0,0 km/h O-SO -8,7 C 1,3 C 0,0 km/h
10.03.2010 22:00 0,9 C 54 % 1012,2 hPa 0,0 l/m 0,0 km/h O-SO -7,3 C 0,9 C 0,0 km/h
10.03.2010 23:00 0,3 C 60 % 1012,1 hPa 0,0 l/m 0,0 km/h N-NO -6,5 C 0,3 C 0,0 km/h
11.03.2010 00:00 -0,6 C 71 % 1012,0 hPa 0,0 l/m 0,0 km/h N-NO -5,2 C -0,6 C 0,0 km/h
11.03.2010 01:00 -1,2 C 78 % 1012,1 hPa 0,0 l/m 0,0 km/h SO -4,5 C -1,2 C 0,0 km/h
11.03.2010 02:00 -1,2 C 80 % 1011,8 hPa 0,0 l/m 0,0 km/h NO -4,2 C -1,2 C 0,0 km/h
11.03.2010 03:00 -1,3 C 80 % 1011,6 hPa 0,0 l/m 0,0 km/h NO -4,3 C -1,3 C 0,0 km/h
11.03.2010 04:00 -1,7 C 83 % 1011,6 hPa 0,0 l/m 0,0 km/h NO -4,2 C -1,7 C 0,0 km/h
11.03.2010 05:00 -1,8 C 84 % 1011,9 hPa 0,0 l/m 0,0 km/h N-NO -4,1 C -1,8 C 0,0 km/h
11.03.2010 06:00 -1,9 C 85 % 1012,4 hPa 0,0 l/m 0,0 km/h N-NO -4,1 C -1,9 C 0,0 km/h
11.03.2010 07:00 -1,6 C 85 % 1012,5 hPa 0,0 l/m 0,0 km/h NO -3,8 C -1,6 C 0,0 km/h
11.03.2010 08:00 -0,2 C 83 % 1013,1 hPa 0,0 l/m 0,0 km/h NW -2,7 C -0,2 C 0,0 km/h
11.03.2010 09:00 0,7 C 81 % 1013,0 hPa 0,0 l/m 0,0 km/h N-NO -2,2 C 0,7 C 0,0 km/h
11.03.2010 10:00 2,1 C 77 % 1013,0 hPa 0,0 l/m 0,0 km/h W-NW -1,5 C 2,1 C 0,0 km/h
11.03.2010 11:00 2,8 C 75 % 1012,9 hPa 0,0 l/m 0,0 km/h NW -1,2 C 2,8 C 0,0 km/h
11.03.2010 12:00 2,9 C 74 % 1012,8 hPa 0,0 l/m 0,0 km/h W-NW -1,3 C 2,9 C 0,0 km/h
11.03.2010 13:00 1,8 C 76 % 1012,8 hPa 0,4 l/m 0,0 km/h NO -2,0 C 1,8 C 0,0 km/h
11.03.2010 14:00 2,3 C 76 % 1012,8 hPa 0,4 l/m 0,0 km/h N-NW -1,5 C 2,3 C 0,0 km/h
11.03.2010 15:00 2,4 C 75 % 1012,9 hPa 0,0 l/m 0,0 km/h N-NO -1,6 C 2,4 C 0,0 km/h
11.03.2010 16:00 1,5 C 75 % 1013,2 hPa 0,4 l/m 0,0 km/h NW -2,4 C 1,5 C 0,0 km/h
11.03.2010 17:00 0,0 C 79 % 1013,8 hPa 0,0 l/m 1,3 km/h NW -3,2 C 0,0 C 0,7 km/h
11.03.2010 18:00 -1,1 C 84 % 1014,4 hPa 0,0 l/m 0,0 km/h NW -3,4 C -1,1 C 0,0 km/h
11.03.2010 19:00 -2,1 C 86 % 1014,8 hPa 0,0 l/m 0,0 km/h NW -4,1 C -2,1 C 0,0 km/h
11.03.2010 20:00 -2,8 C 86 % 1015,0 hPa 0,0 l/m 0,0 km/h NW -4,8 C -2,8 C 0,0 km/h
11.03.2010 21:00 -2,4 C 89 % 1015,4 hPa 0,0 l/m 0,0 km/h NW -4,0 C -2,4 C 0,0 km/h
11.03.2010 22:00 -1,9 C 89 % 1015,5 hPa 0,0 l/m 0,0 km/h NW -3,5 C -1,9 C 0,0 km/h
11.03.2010 23:00 -1,9 C 89 % 1015,8 hPa 0,0 l/m 0,0 km/h NW -3,5 C -1,9 C 0,0 km/h
12.03.2010 00:00 -1,9 C 90 % 1015,7 hPa 0,0 l/m 0,0 km/h NW -3,3 C -1,9 C 0,0 km/h
12.03.2010 01:00 -4,5 C 89 % 1016,1 hPa 0,0 l/m 0,0 km/h NW -6,0 C -4,5 C 0,0 km/h
12.03.2010 02:00 -7,9 C 88 % 1015,9 hPa 0,0 l/m 0,0 km/h NW -9,5 C -7,9 C 0,0 km/h
12.03.2010 03:00 -8,2 C 88 % 1016,2 hPa 0,0 l/m 0,0 km/h NW -9,8 C -8,2 C 0,0 km/h
12.03.2010 04:00 -6,7 C 89 % 1016,6 hPa 0,4 l/m 0,0 km/h NW -8,2 C -6,7 C 0,0 km/h
12.03.2010 05:00 -7,8 C 89 % 1016,7 hPa 0,0 l/m 0,0 km/h NW -9,3 C -7,8 C 0,0 km/h
12.03.2010 06:00 -4,9 C 90 % 1017,3 hPa 0,0 l/m 0,0 km/h NW -6,3 C -4,9 C 0,0 km/h
12.03.2010 07:00 -4,9 C 90 % 1018,0 hPa 0,0 l/m 1,9 km/h NW -6,3 C -4,9 C 1,1 km/h
12.03.2010 08:00 -3,7 C 89 % 1018,5 hPa 0,0 l/m 8,4 km/h NW -5,2 C -6,0 C 4,7 km/h
12.03.2010 09:00 -0,5 C 84 % 1018,7 hPa 0,0 l/m 0,0 km/h W -2,9 C -0,5 C 0,0 km/h
12.03.2010 10:00 7,6 C 60 % 1018,4 hPa 0,0 l/m 0,0 km/h W 0,3 C 7,6 C 0,0 km/h
12.03.2010 11:00 7,1 C 59 % 1018,3 hPa 0,0 l/m 0,0 km/h W-SW -0,4 C 7,1 C 0,0 km/h
12.03.2010 12:00 6,4 C 58 % 1018,3 hPa 0,4 l/m 0,0 km/h W -1,2 C 6,4 C 0,0 km/h
12.03.2010 13:00 6,1 C 60 % 1017,8 hPa 0,0 l/m 0,0 km/h W-SW -1,1 C 6,1 C 0,0 km/h
12.03.2010 14:00 8,4 C 55 % 1017,5 hPa 0,0 l/m 0,0 km/h W-NW -0,1 C 8,4 C 0,0 km/h
12.03.2010 15:00 9,3 C 52 % 1017,5 hPa 0,0 l/m 1,3 km/h W -0,0 C 9,3 C 0,7 km/h
12.03.2010 16:00 8,5 C 52 % 1017,5 hPa 0,0 l/m 5,2 km/h W -0,8 C 8,5 C 2,9 km/h
12.03.2010 17:00 3,8 C 64 % 1018,1 hPa 0,0 l/m 0,0 km/h SO -2,4 C 3,8 C 0,0 km/h
12.03.2010 18:00 -0,6 C 76 % 1018,7 hPa 0,0 l/m 0,0 km/h O -4,3 C -0,6 C 0,0 km/h
12.03.2010 19:00 -1,9 C 83 % 1019,3 hPa 0,0 l/m 0,0 km/h O-SO -4,4 C -1,9 C 0,0 km/h
12.03.2010 20:00 -2,6 C 85 % 1019,8 hPa 0,0 l/m 0,0 km/h SO -4,8 C -2,6 C 0,0 km/h
12.03.2010 21:00 -3,2 C 87 % 1020,3 hPa 0,0 l/m 0,0 km/h O-SO -5,0 C -3,2 C 0,0 km/h
12.03.2010 22:00 -3,5 C 88 % 1020,7 hPa 0,0 l/m 0,0 km/h O-NO -5,2 C -3,5 C 0,0 km/h
12.03.2010 23:00 -3,3 C 89 % 1021,0 hPa 0,0 l/m 0,0 km/h O-NO -4,8 C -3,3 C 0,0 km/h
13.03.2010 00:00 -3,1 C 90 % 1020,9 hPa 0,0 l/m 0,0 km/h O-NO -4,5 C -3,1 C 0,0 km/h
13.03.2010 01:00 -2,2 C 90 % 1021,4 hPa 0,0 l/m 0,0 km/h O-NO -3,6 C -2,2 C 0,0 km/h
13.03.2010 02:00 -1,8 C 90 % 1021,4 hPa 0,0 l/m 0,0 km/h O-SO -3,2 C -1,8 C 0,0 km/h
13.03.2010 03:00 -1,6 C 90 % 1021,7 hPa 0,0 l/m 0,0 km/h S-SW -3,0 C -1,6 C 0,0 km/h
13.03.2010 04:00 -1,3 C 90 % 1022,1 hPa 0,0 l/m 0,0 km/h O-SO -2,7 C -1,3 C 0,0 km/h
13.03.2010 05:00 -1,4 C 90 % 1022,3 hPa 0,0 l/m 0,0 km/h O-SO -2,8 C -1,4 C 0,0 km/h
13.03.2010 06:00 -1,1 C 90 % 1022,9 hPa 0,0 l/m 0,0 km/h O-SO -2,5 C -1,1 C 0,0 km/h
13.03.2010 07:00 -0,4 C 89 % 1023,3 hPa 0,0 l/m 0,0 km/h SO -2,0 C -0,4 C 0,0 km/h
13.03.2010 08:00 1,0 C 86 % 1024,0 hPa 0,0 l/m 0,0 km/h SO -1,1 C 1,0 C 0,0 km/h
13.03.2010 09:00 3,6 C 80 % 1024,4 hPa 0,0 l/m 0,0 km/h NW 0,5 C 3,6 C 0,0 km/h
13.03.2010 10:00 4,7 C 72 % 1024,4 hPa 0,0 l/m 3,2 km/h W-SW 0,1 C 4,7 C 1,8 km/h
13.03.2010 11:00 6,5 C 67 % 1025,0 hPa 0,0 l/m 0,0 km/h SW 0,8 C 6,5 C 0,0 km/h
13.03.2010 12:00 9,6 C 59 % 1024,5 hPa 0,0 l/m 0,0 km/h NW 2,0 C 9,6 C 0,0 km/h
13.03.2010 13:00 10,3 C 54 % 1024,1 hPa 0,0 l/m 11,7 km/h N 1,4 C 7,0 C 6,5 km/h
13.03.2010 14:00 8,4 C 53 % 1024,0 hPa 0,0 l/m 1,3 km/h NO -0,6 C 8,4 C 0,7 km/h
13.03.2010 15:00 7,6 C 57 % 1023,9 hPa 0,0 l/m 0,0 km/h NO -0,4 C 7,6 C 0,0 km/h
13.03.2010 16:00 6,7 C 61 % 1024,4 hPa 0,0 l/m 0,0 km/h NO -0,3 C 6,7 C 0,0 km/h
13.03.2010 17:00 5,5 C 64 % 1024,6 hPa 0,0 l/m 0,0 km/h O-NO -0,8 C 5,5 C 0,0 km/h
13.03.2010 18:00 4,2 C 70 % 1025,0 hPa 0,0 l/m 0,0 km/h O-SO -0,8 C 4,2 C 0,0 km/h
13.03.2010 19:00 3,3 C 75 % 1025,6 hPa 0,0 l/m 0,0 km/h O-NO -0,7 C 3,3 C 0,0 km/h
13.03.2010 20:00 2,8 C 78 % 1025,7 hPa 0,0 l/m 0,0 km/h SO -0,6 C 2,8 C 0,0 km/h
13.03.2010 21:00 2,5 C 80 % 1025,9 hPa 0,0 l/m 0,0 km/h O-SO -0,6 C 2,5 C 0,0 km/h
13.03.2010 22:00 2,2 C 81 % 1026,0 hPa 0,0 l/m 0,0 km/h O-SO -0,7 C 2,2 C 0,0 km/h
13.03.2010 23:00 1,9 C 82 % 1025,9 hPa 0,0 l/m 0,0 km/h SO -0,8 C 1,9 C 0,0 km/h
14.03.2010 00:00 1,9 C 84 % 1025,5 hPa 0,0 l/m 0,0 km/h SO -0,5 C 1,9 C 0,0 km/h
14.03.2010 01:00 1,6 C 84 % 1025,3 hPa 0,0 l/m 0,0 km/h SO -0,8 C 1,6 C 0,0 km/h
14.03.2010 02:00 1,4 C 85 % 1025,2 hPa 0,0 l/m 0,0 km/h SO -0,8 C 1,4 C 0,0 km/h
14.03.2010 03:00 1,2 C 85 % 1024,7 hPa 0,0 l/m 0,0 km/h S-SO -1,0 C 1,2 C 0,0 km/h
14.03.2010 04:00 1,3 C 85 % 1024,8 hPa 0,0 l/m 0,0 km/h SO -0,9 C 1,3 C 0,0 km/h
14.03.2010 05:00 1,2 C 86 % 1024,7 hPa 0,0 l/m 0,0 km/h O-NO -0,9 C 1,2 C 0,0 km/h
14.03.2010 06:00 1,3 C 86 % 1024,8 hPa 0,0 l/m 0,0 km/h O -0,8 C 1,3 C 0,0 km/h
14.03.2010 07:00 1,5 C 86 % 1025,0 hPa 0,0 l/m 0,0 km/h SO -0,6 C 1,5 C 0,0 km/h
14.03.2010 08:00 1,9 C 86 % 1025,2 hPa 0,0 l/m 0,0 km/h O-NO -0,2 C 1,9 C 0,0 km/h
14.03.2010 09:00 3,3 C 82 % 1025,5 hPa 0,0 l/m 0,0 km/h W 0,5 C 3,3 C 0,0 km/h
14.03.2010 10:00 4,2 C 76 % 1025,3 hPa 0,0 l/m 0,0 km/h W 0,4 C 4,2 C 0,0 km/h
14.03.2010 11:00 4,5 C 74 % 1025,4 hPa 0,0 l/m 2,6 km/h W 0,3 C 4,5 C 1,4 km/h
14.03.2010 12:00 4,7 C 74 % 1024,9 hPa 0,0 l/m 0,0 km/h W-SW 0,5 C 4,7 C 0,0 km/h
14.03.2010 13:00 5,1 C 71 % 1024,4 hPa 0,0 l/m 5,8 km/h W-SW 0,3 C 5,1 C 3,2 km/h
14.03.2010 14:00 5,3 C 70 % 1023,9 hPa 0,0 l/m 0,6 km/h W 0,3 C 5,3 C 0,4 km/h
14.03.2010 15:00 4,9 C 71 % 1023,7 hPa 0,0 l/m 9,1 km/h W 0,1 C 2,6 C 5,0 km/h
14.03.2010 16:00 4,5 C 74 % 1023,5 hPa 0,0 l/m 0,0 km/h SW 0,3 C 4,5 C 0,0 km/h
14.03.2010 17:00 3,8 C 79 % 1023,7 hPa 0,0 l/m 0,0 km/h O-SO 0,5 C 3,8 C 0,0 km/h
14.03.2010 18:00 3,5 C 81 % 1024,0 hPa 0,0 l/m 0,0 km/h O-NO 0,6 C 3,5 C 0,0 km/h
14.03.2010 19:00 2,8 C 84 % 1024,3 hPa 0,0 l/m 0,0 km/h NO 0,4 C 2,8 C 0,0 km/h
14.03.2010 20:00 2,6 C 86 % 1024,5 hPa 0,0 l/m 0,0 km/h W-SW 0,5 C 2,6 C 0,0 km/h
14.03.2010 21:00 3,8 C 80 % 1024,5 hPa 0,0 l/m 5,2 km/h W 0,7 C 3,8 C 2,9 km/h
14.03.2010 22:00 3,6 C 79 % 1024,8 hPa 0,0 l/m 0,0 km/h W-SW 0,3 C 3,6 C 0,0 km/h
14.03.2010 23:00 3,8 C 78 % 1024,5 hPa 0,0 l/m 15,6 km/h S-SW 0,3 C -2,7 C 8,6 km/h
Min-Datum _ 08.03.10 08.03.10 10.03.10 - 08.03.10 - 08.03.10 09.03.10 08.03.10
_ Min-Zeit 06:53 15:53 16:53 - 01:53 - 06:53 06:53 01:53
Minimum _ -8,6 C 30 % 1011,5 hPa - 0,0 km/h - -13,2 C -15,2 C 0,0 km/h
Max-Datum _ 13.03.10 12.03.10 13.03.10 11.03.10 08.03.10 - 13.03.10 08.03.10 08.03.10
_ Max-Zeit 13:53 00:53 22:53 13:53 20:53 - 12:53 15:53 20:53
Maximum _ 10,3 C 90 % 1026,0 hPa 0,4 l/m 21,4 km/h
O
- 2,0 C 9,6 C 11,9 km/h
O
Durchschnitt _ 0,7 C 66 % 1018,1 hPa #1,8 l/m 2,0 km/h NO -5,5 C 0,1 C 1,1 km/h